sensor_id;sensor_type;location;lat;lon;timestamp;P1;durP1;ratioP1;P2;durP2;ratioP2
39502;SDS011;26970;49.900;10.774;2023-11-21T00:00:44;3.47;;;1.35;;
39502;SDS011;26970;49.900;10.774;2023-11-21T00:03:10;6.28;;;1.58;;
39502;SDS011;26970;49.900;10.774;2023-11-21T00:05:39;3.03;;;1.42;;
39502;SDS011;26970;49.900;10.774;2023-11-21T00:08:06;3.17;;;1.40;;
39502;SDS011;26970;49.900;10.774;2023-11-21T00:10:32;3.92;;;1.48;;
39502;SDS011;26970;49.900;10.774;2023-11-21T00:12:57;3.47;;;1.42;;
39502;SDS011;26970;49.900;10.774;2023-11-21T00:15:23;5.05;;;1.45;;
39502;SDS011;26970;49.900;10.774;2023-11-21T00:17:48;1.55;;;1.27;;
39502;SDS011;26970;49.900;10.774;2023-11-21T00:20:14;3.72;;;1.50;;
39502;SDS011;26970;49.900;10.774;2023-11-21T00:22:40;5.97;;;1.38;;
39502;SDS011;26970;49.900;10.774;2023-11-21T00:25:06;3.70;;;1.50;;
39502;SDS011;26970;49.900;10.774;2023-11-21T00:27:33;4.72;;;1.48;;
39502;SDS011;26970;49.900;10.774;2023-11-21T00:30:00;2.88;;;1.55;;
39502;SDS011;26970;49.900;10.774;2023-11-21T00:32:25;10.05;;;2.00;;
39502;SDS011;26970;49.900;10.774;2023-11-21T00:34:51;5.40;;;1.52;;
39502;SDS011;26970;49.900;10.774;2023-11-21T00:37:16;4.20;;;1.50;;
39502;SDS011;26970;49.900;10.774;2023-11-21T00:39:42;2.42;;;1.20;;
39502;SDS011;26970;49.900;10.774;2023-11-21T00:42:07;7.70;;;1.48;;
39502;SDS011;26970;49.900;10.774;2023-11-21T00:44:33;2.78;;;1.60;;
39502;SDS011;26970;49.900;10.774;2023-11-21T00:46:59;3.50;;;1.40;;
39502;SDS011;26970;49.900;10.774;2023-11-21T00:49:25;5.18;;;1.50;;
39502;SDS011;26970;49.900;10.774;2023-11-21T00:51:50;3.38;;;1.40;;
39502;SDS011;26970;49.900;10.774;2023-11-21T00:54:16;5.28;;;1.83;;
39502;SDS011;26970;49.900;10.774;2023-11-21T00:56:44;4.00;;;1.52;;
39502;SDS011;26970;49.900;10.774;2023-11-21T00:59:12;7.82;;;2.08;;
39502;SDS011;26970;49.900;10.774;2023-11-21T01:01:37;2.63;;;1.40;;
39502;SDS011;26970;49.900;10.774;2023-11-21T01:04:03;4.32;;;1.52;;
39502;SDS011;26970;49.900;10.774;2023-11-21T01:06:29;3.53;;;1.60;;
39502;SDS011;26970;49.900;10.774;2023-11-21T01:08:55;4.32;;;1.73;;
39502;SDS011;26970;49.900;10.774;2023-11-21T01:11:20;5.95;;;1.65;;
39502;SDS011;26970;49.900;10.774;2023-11-21T01:13:46;4.65;;;1.73;;
39502;SDS011;26970;49.900;10.774;2023-11-21T01:16:11;2.97;;;1.52;;
39502;SDS011;26970;49.900;10.774;2023-11-21T01:18:37;4.05;;;1.80;;
39502;SDS011;26970;49.900;10.774;2023-11-21T01:21:03;3.13;;;1.50;;
39502;SDS011;26970;49.900;10.774;2023-11-21T01:23:29;4.05;;;1.52;;
39502;SDS011;26970;49.900;10.774;2023-11-21T01:25:55;3.42;;;1.75;;
39502;SDS011;26970;49.900;10.774;2023-11-21T01:28:21;4.47;;;1.90;;
39502;SDS011;26970;49.900;10.774;2023-11-21T01:30:47;3.72;;;1.67;;
39502;SDS011;26970;49.900;10.774;2023-11-21T01:33:13;2.92;;;1.70;;
39502;SDS011;26970;49.900;10.774;2023-11-21T01:35:40;6.82;;;1.90;;
39502;SDS011;26970;49.900;10.774;2023-11-21T01:38:08;3.78;;;1.90;;
39502;SDS011;26970;49.900;10.774;2023-11-21T01:40:34;2.95;;;1.90;;
39502;SDS011;26970;49.900;10.774;2023-11-21T01:43:00;3.53;;;1.80;;
39502;SDS011;26970;49.900;10.774;2023-11-21T01:45:28;4.03;;;2.08;;
39502;SDS011;26970;49.900;10.774;2023-11-21T01:47:56;4.78;;;2.15;;
39502;SDS011;26970;49.900;10.774;2023-11-21T01:50:21;3.92;;;1.75;;
39502;SDS011;26970;49.900;10.774;2023-11-21T01:52:47;4.60;;;1.90;;
39502;SDS011;26970;49.900;10.774;2023-11-21T01:55:14;4.63;;;2.00;;
39502;SDS011;26970;49.900;10.774;2023-11-21T01:57:45;3.97;;;1.70;;
39502;SDS011;26970;49.900;10.774;2023-11-21T02:00:11;4.15;;;2.08;;
39502;SDS011;26970;49.900;10.774;2023-11-21T02:02:49;3.42;;;1.90;;
39502;SDS011;26970;49.900;10.774;2023-11-21T02:05:16;3.08;;;1.95;;
39502;SDS011;26970;49.900;10.774;2023-11-21T02:07:43;7.53;;;2.22;;
39502;SDS011;26970;49.900;10.774;2023-11-21T02:10:09;3.13;;;1.90;;
39502;SDS011;26970;49.900;10.774;2023-11-21T02:12:39;5.93;;;1.90;;
39502;SDS011;26970;49.900;10.774;2023-11-21T02:15:12;5.38;;;2.10;;
39502;SDS011;26970;49.900;10.774;2023-11-21T02:20:17;8.25;;;1.90;;
39502;SDS011;26970;49.900;10.774;2023-11-21T02:22:52;6.50;;;2.13;;
39502;SDS011;26970;49.900;10.774;2023-11-21T02:25:29;2.88;;;2.17;;
39502;SDS011;26970;49.900;10.774;2023-11-21T02:27:59;3.83;;;1.83;;
39502;SDS011;26970;49.900;10.774;2023-11-21T02:30:26;7.80;;;2.30;;
39502;SDS011;26970;49.900;10.774;2023-11-21T02:32:57;7.15;;;2.35;;
39502;SDS011;26970;49.900;10.774;2023-11-21T02:35:22;6.40;;;2.20;;
39502;SDS011;26970;49.900;10.774;2023-11-21T02:37:50;7.88;;;2.58;;
39502;SDS011;26970;49.900;10.774;2023-11-21T02:40:16;6.00;;;2.47;;
39502;SDS011;26970;49.900;10.774;2023-11-21T02:42:43;7.50;;;2.53;;
39502;SDS011;26970;49.900;10.774;2023-11-21T02:45:10;6.30;;;2.22;;
39502;SDS011;26970;49.900;10.774;2023-11-21T02:47:38;5.78;;;2.50;;
39502;SDS011;26970;49.900;10.774;2023-11-21T02:50:04;3.85;;;2.10;;
39502;SDS011;26970;49.900;10.774;2023-11-21T02:52:32;4.57;;;2.42;;
39502;SDS011;26970;49.900;10.774;2023-11-21T02:54:58;4.28;;;2.28;;
39502;SDS011;26970;49.900;10.774;2023-11-21T02:57:24;5.35;;;2.25;;
39502;SDS011;26970;49.900;10.774;2023-11-21T02:59:49;6.47;;;2.65;;
39502;SDS011;26970;49.900;10.774;2023-11-21T03:02:15;3.47;;;2.13;;
39502;SDS011;26970;49.900;10.774;2023-11-21T03:04:41;6.30;;;2.28;;
39502;SDS011;26970;49.900;10.774;2023-11-21T03:07:07;7.32;;;2.33;;
39502;SDS011;26970;49.900;10.774;2023-11-21T03:09:34;6.70;;;3.08;;
39502;SDS011;26970;49.900;10.774;2023-11-21T03:12:01;6.40;;;2.67;;
39502;SDS011;26970;49.900;10.774;2023-11-21T03:14:27;4.43;;;2.17;;
39502;SDS011;26970;49.900;10.774;2023-11-21T03:16:52;6.32;;;2.55;;
39502;SDS011;26970;49.900;10.774;2023-11-21T03:19:18;3.60;;;2.38;;
39502;SDS011;26970;49.900;10.774;2023-11-21T03:21:43;4.95;;;2.47;;
39502;SDS011;26970;49.900;10.774;2023-11-21T03:24:09;4.47;;;2.70;;
39502;SDS011;26970;49.900;10.774;2023-11-21T03:26:34;8.82;;;3.15;;
39502;SDS011;26970;49.900;10.774;2023-11-21T03:29:00;6.50;;;2.58;;
39502;SDS011;26970;49.900;10.774;2023-11-21T03:31:26;7.68;;;2.90;;
39502;SDS011;26970;49.900;10.774;2023-11-21T03:33:51;4.28;;;2.70;;
39502;SDS011;26970;49.900;10.774;2023-11-21T03:36:18;5.75;;;3.38;;
39502;SDS011;26970;49.900;10.774;2023-11-21T03:38:44;4.53;;;2.85;;
39502;SDS011;26970;49.900;10.774;2023-11-21T03:41:10;4.63;;;2.47;;
39502;SDS011;26970;49.900;10.774;2023-11-21T03:43:38;5.82;;;2.88;;
39502;SDS011;26970;49.900;10.774;2023-11-21T03:46:04;6.40;;;3.47;;
39502;SDS011;26970;49.900;10.774;2023-11-21T03:48:30;6.07;;;2.90;;
39502;SDS011;26970;49.900;10.774;2023-11-21T03:50:55;9.82;;;3.03;;
39502;SDS011;26970;49.900;10.774;2023-11-21T03:53:21;5.65;;;2.70;;
39502;SDS011;26970;49.900;10.774;2023-11-21T03:55:47;5.47;;;2.92;;
39502;SDS011;26970;49.900;10.774;2023-11-21T03:58:12;4.88;;;2.83;;
39502;SDS011;26970;49.900;10.774;2023-11-21T04:00:38;9.38;;;3.35;;
39502;SDS011;26970;49.900;10.774;2023-11-21T04:03:03;7.63;;;3.63;;
39502;SDS011;26970;49.900;10.774;2023-11-21T04:05:29;6.97;;;3.28;;
39502;SDS011;26970;49.900;10.774;2023-11-21T04:07:56;6.88;;;3.38;;
39502;SDS011;26970;49.900;10.774;2023-11-21T04:10:21;9.02;;;3.40;;
39502;SDS011;26970;49.900;10.774;2023-11-21T04:12:47;7.00;;;3.80;;
39502;SDS011;26970;49.900;10.774;2023-11-21T04:15:13;6.95;;;3.35;;
39502;SDS011;26970;49.900;10.774;2023-11-21T04:17:39;9.68;;;3.72;;
39502;SDS011;26970;49.900;10.774;2023-11-21T04:20:05;7.82;;;3.47;;
39502;SDS011;26970;49.900;10.774;2023-11-21T04:22:35;5.85;;;3.22;;
39502;SDS011;26970;49.900;10.774;2023-11-21T04:25:03;5.55;;;3.10;;
39502;SDS011;26970;49.900;10.774;2023-11-21T04:27:29;7.38;;;3.40;;
39502;SDS011;26970;49.900;10.774;2023-11-21T04:29:55;6.00;;;3.40;;
39502;SDS011;26970;49.900;10.774;2023-11-21T04:32:20;5.32;;;3.45;;
39502;SDS011;26970;49.900;10.774;2023-11-21T04:34:46;8.98;;;3.28;;
39502;SDS011;26970;49.900;10.774;2023-11-21T04:37:11;8.70;;;3.53;;
39502;SDS011;26970;49.900;10.774;2023-11-21T04:39:37;6.30;;;3.40;;
39502;SDS011;26970;49.900;10.774;2023-11-21T04:42:02;5.57;;;3.20;;
39502;SDS011;26970;49.900;10.774;2023-11-21T04:44:28;5.00;;;3.08;;
39502;SDS011;26970;49.900;10.774;2023-11-21T04:46:54;6.85;;;3.63;;
39502;SDS011;26970;49.900;10.774;2023-11-21T04:49:19;8.55;;;3.47;;
39502;SDS011;26970;49.900;10.774;2023-11-21T04:51:45;6.10;;;3.58;;
39502;SDS011;26970;49.900;10.774;2023-11-21T04:54:10;6.28;;;3.33;;
39502;SDS011;26970;49.900;10.774;2023-11-21T04:56:36;6.53;;;3.20;;
39502;SDS011;26970;49.900;10.774;2023-11-21T04:59:01;6.00;;;3.40;;
39502;SDS011;26970;49.900;10.774;2023-11-21T05:01:27;6.88;;;3.40;;
39502;SDS011;26970;49.900;10.774;2023-11-21T05:03:52;9.95;;;3.80;;
39502;SDS011;26970;49.900;10.774;2023-11-21T05:06:18;9.63;;;3.70;;
39502;SDS011;26970;49.900;10.774;2023-11-21T05:08:43;7.53;;;3.45;;
39502;SDS011;26970;49.900;10.774;2023-11-21T05:11:09;6.28;;;3.53;;
39502;SDS011;26970;49.900;10.774;2023-11-21T05:13:35;5.75;;;3.00;;
39502;SDS011;26970;49.900;10.774;2023-11-21T05:16:01;8.02;;;3.70;;
39502;SDS011;26970;49.900;10.774;2023-11-21T05:18:29;5.85;;;3.30;;
39502;SDS011;26970;49.900;10.774;2023-11-21T05:20:55;5.43;;;3.63;;
39502;SDS011;26970;49.900;10.774;2023-11-21T05:23:21;8.93;;;4.07;;
39502;SDS011;26970;49.900;10.774;2023-11-21T05:25:46;7.50;;;3.40;;
39502;SDS011;26970;49.900;10.774;2023-11-21T05:28:12;7.63;;;3.70;;
39502;SDS011;26970;49.900;10.774;2023-11-21T05:30:38;8.82;;;3.67;;
39502;SDS011;26970;49.900;10.774;2023-11-21T05:33:04;10.07;;;3.28;;
39502;SDS011;26970;49.900;10.774;2023-11-21T05:35:30;8.45;;;3.58;;
39502;SDS011;26970;49.900;10.774;2023-11-21T05:37:56;7.05;;;3.45;;
39502;SDS011;26970;49.900;10.774;2023-11-21T05:40:22;11.15;;;3.97;;
39502;SDS011;26970;49.900;10.774;2023-11-21T05:42:47;8.70;;;3.70;;
39502;SDS011;26970;49.900;10.774;2023-11-21T05:45:13;79.00;;;7.20;;
39502;SDS011;26970;49.900;10.774;2023-11-21T05:47:41;28.38;;;4.38;;
39502;SDS011;26970;49.900;10.774;2023-11-21T05:50:08;9.10;;;4.00;;
39502;SDS011;26970;49.900;10.774;2023-11-21T05:52:39;6.90;;;3.35;;
39502;SDS011;26970;49.900;10.774;2023-11-21T05:55:05;6.93;;;3.35;;
39502;SDS011;26970;49.900;10.774;2023-11-21T05:57:35;9.48;;;4.00;;
39502;SDS011;26970;49.900;10.774;2023-11-21T06:00:02;11.57;;;4.03;;
39502;SDS011;26970;49.900;10.774;2023-11-21T06:02:40;6.13;;;3.67;;
39502;SDS011;26970;49.900;10.774;2023-11-21T06:05:07;9.13;;;3.97;;
39502;SDS011;26970;49.900;10.774;2023-11-21T06:07:33;8.27;;;3.92;;
39502;SDS011;26970;49.900;10.774;2023-11-21T06:10:00;9.75;;;3.75;;
39502;SDS011;26970;49.900;10.774;2023-11-21T06:12:31;14.37;;;3.93;;
39502;SDS011;26970;49.900;10.774;2023-11-21T06:15:00;8.23;;;3.78;;
39502;SDS011;26970;49.900;10.774;2023-11-21T06:17:30;9.95;;;4.38;;
39502;SDS011;26970;49.900;10.774;2023-11-21T06:19:56;6.00;;;3.70;;
39502;SDS011;26970;49.900;10.774;2023-11-21T06:22:22;8.20;;;4.05;;
39502;SDS011;26970;49.900;10.774;2023-11-21T06:24:47;10.55;;;4.30;;
39502;SDS011;26970;49.900;10.774;2023-11-21T06:27:13;14.50;;;5.13;;
39502;SDS011;26970;49.900;10.774;2023-11-21T06:29:38;12.40;;;4.90;;
39502;SDS011;26970;49.900;10.774;2023-11-21T06:32:04;10.25;;;5.25;;
39502;SDS011;26970;49.900;10.774;2023-11-21T06:34:30;34.20;;;5.90;;
39502;SDS011;26970;49.900;10.774;2023-11-21T06:36:56;21.60;;;6.97;;
39502;SDS011;26970;49.900;10.774;2023-11-21T06:39:22;26.58;;;6.75;;
39502;SDS011;26970;49.900;10.774;2023-11-21T06:41:51;12.80;;;5.40;;
39502;SDS011;26970;49.900;10.774;2023-11-21T06:44:16;20.90;;;6.00;;
39502;SDS011;26970;49.900;10.774;2023-11-21T06:46:42;14.65;;;6.32;;
39502;SDS011;26970;49.900;10.774;2023-11-21T06:49:08;13.82;;;6.60;;
39502;SDS011;26970;49.900;10.774;2023-11-21T06:51:34;14.73;;;6.28;;
39502;SDS011;26970;49.900;10.774;2023-11-21T06:53:59;18.65;;;7.03;;
39502;SDS011;26970;49.900;10.774;2023-11-21T06:56:25;23.75;;;7.32;;
39502;SDS011;26970;49.900;10.774;2023-11-21T06:58:50;48.47;;;8.43;;
39502;SDS011;26970;49.900;10.774;2023-11-21T07:01:18;21.92;;;7.13;;
39502;SDS011;26970;49.900;10.774;2023-11-21T07:03:44;48.08;;;6.97;;
39502;SDS011;26970;49.900;10.774;2023-11-21T07:06:10;32.40;;;7.47;;
39502;SDS011;26970;49.900;10.774;2023-11-21T07:08:36;43.10;;;7.35;;
39502;SDS011;26970;49.900;10.774;2023-11-21T07:11:02;36.55;;;7.00;;
39502;SDS011;26970;49.900;10.774;2023-11-21T07:13:29;79.20;;;8.63;;
39502;SDS011;26970;49.900;10.774;2023-11-21T07:15:55;97.28;;;9.88;;
39502;SDS011;26970;49.900;10.774;2023-11-21T07:18:21;43.17;;;8.50;;
39502;SDS011;26970;49.900;10.774;2023-11-21T07:20:46;86.18;;;9.95;;
39502;SDS011;26970;49.900;10.774;2023-11-21T07:23:12;36.50;;;9.18;;
39502;SDS011;26970;49.900;10.774;2023-11-21T07:25:37;38.30;;;9.07;;
39502;SDS011;26970;49.900;10.774;2023-11-21T07:28:03;32.38;;;8.88;;
39502;SDS011;26970;49.900;10.774;2023-11-21T07:30:30;21.73;;;11.25;;
39502;SDS011;26970;49.900;10.774;2023-11-21T07:32:56;18.88;;;9.57;;
39502;SDS011;26970;49.900;10.774;2023-11-21T07:35:21;20.17;;;8.55;;
39502;SDS011;26970;49.900;10.774;2023-11-21T07:37:47;23.83;;;8.65;;
39502;SDS011;26970;49.900;10.774;2023-11-21T07:40:13;20.95;;;9.48;;
39502;SDS011;26970;49.900;10.774;2023-11-21T07:42:39;20.75;;;9.05;;
39502;SDS011;26970;49.900;10.774;2023-11-21T07:45:07;20.02;;;10.15;;
39502;SDS011;26970;49.900;10.774;2023-11-21T07:47:33;18.95;;;10.65;;
39502;SDS011;26970;49.900;10.774;2023-11-21T07:49:59;19.23;;;9.25;;
39502;SDS011;26970;49.900;10.774;2023-11-21T07:52:26;23.67;;;9.73;;
39502;SDS011;26970;49.900;10.774;2023-11-21T07:54:51;19.63;;;10.18;;
39502;SDS011;26970;49.900;10.774;2023-11-21T07:57:17;19.30;;;9.20;;
39502;SDS011;26970;49.900;10.774;2023-11-21T07:59:42;16.85;;;9.30;;
39502;SDS011;26970;49.900;10.774;2023-11-21T08:02:08;20.10;;;9.10;;
39502;SDS011;26970;49.900;10.774;2023-11-21T08:04:34;18.52;;;7.97;;
39502;SDS011;26970;49.900;10.774;2023-11-21T08:07:00;15.73;;;7.45;;
39502;SDS011;26970;49.900;10.774;2023-11-21T08:09:26;13.10;;;6.78;;
39502;SDS011;26970;49.900;10.774;2023-11-21T08:11:52;18.88;;;8.52;;
39502;SDS011;26970;49.900;10.774;2023-11-21T08:14:18;13.50;;;7.60;;
39502;SDS011;26970;49.900;10.774;2023-11-21T08:16:45;17.23;;;7.40;;
39502;SDS011;26970;49.900;10.774;2023-11-21T08:19:10;15.43;;;6.72;;
39502;SDS011;26970;49.900;10.774;2023-11-21T08:21:36;11.65;;;6.55;;
39502;SDS011;26970;49.900;10.774;2023-11-21T08:24:05;10.45;;;6.03;;
39502;SDS011;26970;49.900;10.774;2023-11-21T08:26:35;14.35;;;7.40;;
39502;SDS011;26970;49.900;10.774;2023-11-21T08:29:01;15.18;;;7.80;;
39502;SDS011;26970;49.900;10.774;2023-11-21T08:31:27;11.40;;;6.75;;
39502;SDS011;26970;49.900;10.774;2023-11-21T08:33:54;10.48;;;5.57;;
39502;SDS011;26970;49.900;10.774;2023-11-21T08:36:20;8.48;;;5.63;;
39502;SDS011;26970;49.900;10.774;2023-11-21T08:38:49;10.43;;;6.20;;
39502;SDS011;26970;49.900;10.774;2023-11-21T08:41:15;13.55;;;7.03;;
39502;SDS011;26970;49.900;10.774;2023-11-21T08:43:41;14.77;;;6.85;;
39502;SDS011;26970;49.900;10.774;2023-11-21T08:46:07;12.10;;;6.47;;
39502;SDS011;26970;49.900;10.774;2023-11-21T08:48:36;13.90;;;6.30;;
39502;SDS011;26970;49.900;10.774;2023-11-21T08:51:02;11.38;;;7.07;;
39502;SDS011;26970;49.900;10.774;2023-11-21T08:53:29;12.52;;;6.97;;
39502;SDS011;26970;49.900;10.774;2023-11-21T08:55:55;18.45;;;9.02;;
39502;SDS011;26970;49.900;10.774;2023-11-21T08:58:21;16.65;;;7.80;;
39502;SDS011;26970;49.900;10.774;2023-11-21T09:00:47;12.73;;;7.47;;
39502;SDS011;26970;49.900;10.774;2023-11-21T09:03:13;12.45;;;7.05;;
39502;SDS011;26970;49.900;10.774;2023-11-21T09:05:39;10.48;;;6.63;;
39502;SDS011;26970;49.900;10.774;2023-11-21T09:08:05;14.15;;;7.03;;
39502;SDS011;26970;49.900;10.774;2023-11-21T09:10:31;13.80;;;6.30;;
39502;SDS011;26970;49.900;10.774;2023-11-21T09:13:00;11.82;;;6.20;;
39502;SDS011;26970;49.900;10.774;2023-11-21T09:15:26;9.90;;;6.00;;
39502;SDS011;26970;49.900;10.774;2023-11-21T09:17:52;15.00;;;6.55;;
39502;SDS011;26970;49.900;10.774;2023-11-21T09:20:18;9.60;;;6.15;;
39502;SDS011;26970;49.900;10.774;2023-11-21T09:22:47;12.10;;;6.00;;
39502;SDS011;26970;49.900;10.774;2023-11-21T09:25:14;9.95;;;6.03;;
39502;SDS011;26970;49.900;10.774;2023-11-21T09:27:39;13.32;;;6.88;;
39502;SDS011;26970;49.900;10.774;2023-11-21T09:30:06;11.20;;;4.93;;
39502;SDS011;26970;49.900;10.774;2023-11-21T09:32:35;9.07;;;5.75;;
39502;SDS011;26970;49.900;10.774;2023-11-21T09:35:02;13.50;;;6.45;;
39502;SDS011;26970;49.900;10.774;2023-11-21T09:37:29;12.18;;;6.13;;
39502;SDS011;26970;49.900;10.774;2023-11-21T09:39:55;11.32;;;6.70;;
39502;SDS011;26970;49.900;10.774;2023-11-21T09:42:31;10.68;;;6.50;;
39502;SDS011;26970;49.900;10.774;2023-11-21T09:48:02;8.77;;;5.85;;
39502;SDS011;26970;49.900;10.774;2023-11-21T09:50:28;10.18;;;5.80;;
39502;SDS011;26970;49.900;10.774;2023-11-21T09:55:35;10.38;;;5.68;;
39502;SDS011;26970;49.900;10.774;2023-11-21T09:58:03;12.85;;;5.55;;
39502;SDS011;26970;49.900;10.774;2023-11-21T10:00:32;12.15;;;6.25;;
39502;SDS011;26970;49.900;10.774;2023-11-21T10:02:58;9.00;;;5.30;;
39502;SDS011;26970;49.900;10.774;2023-11-21T10:05:25;11.20;;;5.80;;
39502;SDS011;26970;49.900;10.774;2023-11-21T10:07:50;7.57;;;5.03;;
39502;SDS011;26970;49.900;10.774;2023-11-21T10:10:18;7.57;;;3.75;;
39502;SDS011;26970;49.900;10.774;2023-11-21T10:12:49;7.30;;;3.60;;
39502;SDS011;26970;49.900;10.774;2023-11-21T10:15:18;5.47;;;3.67;;
39502;SDS011;26970;49.900;10.774;2023-11-21T10:17:46;5.25;;;3.05;;
39502;SDS011;26970;49.900;10.774;2023-11-21T10:20:14;8.02;;;3.50;;
39502;SDS011;26970;49.900;10.774;2023-11-21T10:22:41;6.78;;;3.08;;
39502;SDS011;26970;49.900;10.774;2023-11-21T10:25:08;6.32;;;3.55;;
39502;SDS011;26970;49.900;10.774;2023-11-21T10:27:39;8.27;;;3.13;;
39502;SDS011;26970;49.900;10.774;2023-11-21T10:30:07;7.07;;;3.20;;
39502;SDS011;26970;49.900;10.774;2023-11-21T10:32:36;4.82;;;2.45;;
39502;SDS011;26970;49.900;10.774;2023-11-21T10:35:05;5.18;;;2.70;;
39502;SDS011;26970;49.900;10.774;2023-11-21T10:37:34;5.25;;;2.72;;
39502;SDS011;26970;49.900;10.774;2023-11-21T10:40:07;5.32;;;2.70;;
39502;SDS011;26970;49.900;10.774;2023-11-21T10:42:37;5.03;;;2.70;;
39502;SDS011;26970;49.900;10.774;2023-11-21T10:45:06;6.38;;;3.17;;
39502;SDS011;26970;49.900;10.774;2023-11-21T10:47:39;5.43;;;2.40;;
39502;SDS011;26970;49.900;10.774;2023-11-21T10:50:05;8.32;;;2.85;;
39502;SDS011;26970;49.900;10.774;2023-11-21T10:52:35;4.78;;;3.13;;
39502;SDS011;26970;49.900;10.774;2023-11-21T10:55:17;5.13;;;2.78;;
39502;SDS011;26970;49.900;10.774;2023-11-21T10:57:46;6.03;;;3.13;;
39502;SDS011;26970;49.900;10.774;2023-11-21T11:00:14;6.28;;;3.53;;
39502;SDS011;26970;49.900;10.774;2023-11-21T11:02:44;7.97;;;3.70;;
39502;SDS011;26970;49.900;10.774;2023-11-21T11:05:12;7.55;;;4.22;;
39502;SDS011;26970;49.900;10.774;2023-11-21T11:07:44;9.63;;;3.20;;
39502;SDS011;26970;49.900;10.774;2023-11-21T11:10:13;8.15;;;3.60;;
39502;SDS011;26970;49.900;10.774;2023-11-21T11:12:39;5.47;;;2.95;;
39502;SDS011;26970;49.900;10.774;2023-11-21T11:15:10;6.30;;;3.60;;
39502;SDS011;26970;49.900;10.774;2023-11-21T11:17:37;8.13;;;2.92;;
39502;SDS011;26970;49.900;10.774;2023-11-21T11:20:07;7.00;;;2.95;;
39502;SDS011;26970;49.900;10.774;2023-11-21T11:26:01;5.90;;;2.50;;
39502;SDS011;26970;49.900;10.774;2023-11-21T11:34:38;7.60;;;2.60;;
39502;SDS011;26970;49.900;10.774;2023-11-21T11:37:00;4.05;;;1.92;;
39502;SDS011;26970;49.900;10.774;2023-11-21T11:42:01;3.13;;;1.95;;
39502;SDS011;26970;49.900;10.774;2023-11-21T11:47:24;4.03;;;2.17;;
39502;SDS011;26970;49.900;10.774;2023-11-21T11:49:56;3.78;;;2.17;;
39502;SDS011;26970;49.900;10.774;2023-11-21T11:55:02;3.13;;;1.90;;
39502;SDS011;26970;49.900;10.774;2023-11-21T11:57:31;2.90;;;1.90;;
39502;SDS011;26970;49.900;10.774;2023-11-21T12:03:02;7.18;;;1.95;;
39502;SDS011;26970;49.900;10.774;2023-11-21T12:05:29;4.63;;;1.88;;
39502;SDS011;26970;49.900;10.774;2023-11-21T12:07:58;3.33;;;1.88;;
39502;SDS011;26970;49.900;10.774;2023-11-21T12:10:26;3.40;;;1.75;;
39502;SDS011;26970;49.900;10.774;2023-11-21T12:12:54;6.13;;;2.33;;
39502;SDS011;26970;49.900;10.774;2023-11-21T12:15:21;7.10;;;2.63;;
39502;SDS011;26970;49.900;10.774;2023-11-21T12:17:48;4.10;;;1.95;;
39502;SDS011;26970;49.900;10.774;2023-11-21T12:20:15;6.45;;;2.20;;
39502;SDS011;26970;49.900;10.774;2023-11-21T12:22:45;8.10;;;2.17;;
39502;SDS011;26970;49.900;10.774;2023-11-21T12:25:17;4.90;;;2.63;;
39502;SDS011;26970;49.900;10.774;2023-11-21T12:27:45;6.07;;;2.00;;
39502;SDS011;26970;49.900;10.774;2023-11-21T12:30:12;5.63;;;2.22;;
39502;SDS011;26970;49.900;10.774;2023-11-21T12:32:42;4.88;;;2.38;;
39502;SDS011;26970;49.900;10.774;2023-11-21T12:35:09;5.88;;;2.40;;
39502;SDS011;26970;49.900;10.774;2023-11-21T12:37:39;6.28;;;2.10;;
39502;SDS011;26970;49.900;10.774;2023-11-21T12:40:09;4.85;;;1.75;;
39502;SDS011;26970;49.900;10.774;2023-11-21T12:43:13;6.85;;;2.42;;
39502;SDS011;26970;49.900;10.774;2023-11-21T12:45:32;6.38;;;2.33;;
39502;SDS011;26970;49.900;10.774;2023-11-21T12:47:59;6.97;;;2.63;;
39502;SDS011;26970;49.900;10.774;2023-11-21T12:50:29;7.68;;;2.28;;
39502;SDS011;26970;49.900;10.774;2023-11-21T12:53:14;4.72;;;2.17;;
39502;SDS011;26970;49.900;10.774;2023-11-21T12:55:43;4.03;;;1.70;;
39502;SDS011;26970;49.900;10.774;2023-11-21T12:58:15;7.67;;;2.17;;
39502;SDS011;26970;49.900;10.774;2023-11-21T13:00:47;5.30;;;2.08;;
39502;SDS011;26970;49.900;10.774;2023-11-21T13:03:14;6.40;;;2.10;;
39502;SDS011;26970;49.900;10.774;2023-11-21T13:05:43;6.05;;;2.08;;
39502;SDS011;26970;49.900;10.774;2023-11-21T13:08:09;4.43;;;2.03;;
39502;SDS011;26970;49.900;10.774;2023-11-21T13:10:38;4.22;;;1.67;;
39502;SDS011;26970;49.900;10.774;2023-11-21T13:13:07;6.97;;;2.33;;
39502;SDS011;26970;49.900;10.774;2023-11-21T13:15:34;3.67;;;1.73;;
39502;SDS011;26970;49.900;10.774;2023-11-21T13:18:12;6.53;;;2.03;;
39502;SDS011;26970;49.900;10.774;2023-11-21T13:20:38;4.45;;;1.73;;
39502;SDS011;26970;49.900;10.774;2023-11-21T13:23:07;3.53;;;2.00;;
39502;SDS011;26970;49.900;10.774;2023-11-21T13:25:33;3.63;;;2.03;;
39502;SDS011;26970;49.900;10.774;2023-11-21T13:27:59;5.60;;;1.95;;
39502;SDS011;26970;49.900;10.774;2023-11-21T13:30:28;2.70;;;1.42;;
39502;SDS011;26970;49.900;10.774;2023-11-21T13:33:02;3.28;;;1.85;;
39502;SDS011;26970;49.900;10.774;2023-11-21T13:35:35;3.38;;;1.60;;
39502;SDS011;26970;49.900;10.774;2023-11-21T13:38:09;3.90;;;1.90;;
39502;SDS011;26970;49.900;10.774;2023-11-21T13:40:36;6.47;;;2.13;;
39502;SDS011;26970;49.900;10.774;2023-11-21T13:43:11;6.53;;;2.72;;
39502;SDS011;26970;49.900;10.774;2023-11-21T13:45:37;6.70;;;1.80;;
39502;SDS011;26970;49.900;10.774;2023-11-21T13:48:07;5.40;;;1.90;;
39502;SDS011;26970;49.900;10.774;2023-11-21T13:50:45;7.30;;;2.40;;
39502;SDS011;26970;49.900;10.774;2023-11-21T13:53:20;8.07;;;2.10;;
39502;SDS011;26970;49.900;10.774;2023-11-21T13:55:51;8.18;;;2.55;;
39502;SDS011;26970;49.900;10.774;2023-11-21T13:58:19;6.63;;;2.95;;
39502;SDS011;26970;49.900;10.774;2023-11-21T14:00:53;5.75;;;2.78;;
39502;SDS011;26970;49.900;10.774;2023-11-21T14:03:24;6.78;;;2.50;;
39502;SDS011;26970;49.900;10.774;2023-11-21T14:06:03;8.05;;;3.17;;
39502;SDS011;26970;49.900;10.774;2023-11-21T14:08:33;11.93;;;3.38;;
39502;SDS011;26970;49.900;10.774;2023-11-21T14:10:59;6.60;;;2.75;;
39502;SDS011;26970;49.900;10.774;2023-11-21T14:13:25;4.35;;;2.17;;
39502;SDS011;26970;49.900;10.774;2023-11-21T14:15:52;5.10;;;2.70;;
39502;SDS011;26970;49.900;10.774;2023-11-21T14:18:27;7.10;;;3.42;;
39502;SDS011;26970;49.900;10.774;2023-11-21T14:21:03;6.63;;;3.10;;
39502;SDS011;26970;49.900;10.774;2023-11-21T14:23:33;11.07;;;2.65;;
39502;SDS011;26970;49.900;10.774;2023-11-21T14:26:01;5.95;;;2.60;;
39502;SDS011;26970;49.900;10.774;2023-11-21T14:28:26;8.10;;;2.70;;
39502;SDS011;26970;49.900;10.774;2023-11-21T14:30:52;6.88;;;2.60;;
39502;SDS011;26970;49.900;10.774;2023-11-21T14:33:18;4.72;;;2.72;;
39502;SDS011;26970;49.900;10.774;2023-11-21T14:35:43;8.30;;;3.20;;
39502;SDS011;26970;49.900;10.774;2023-11-21T14:38:09;11.43;;;3.00;;
39502;SDS011;26970;49.900;10.774;2023-11-21T14:40:35;9.80;;;2.92;;
39502;SDS011;26970;49.900;10.774;2023-11-21T14:43:02;9.55;;;2.80;;
39502;SDS011;26970;49.900;10.774;2023-11-21T14:45:31;9.63;;;3.60;;
39502;SDS011;26970;49.900;10.774;2023-11-21T14:47:57;5.30;;;2.55;;
39502;SDS011;26970;49.900;10.774;2023-11-21T14:50:45;9.88;;;2.55;;
39502;SDS011;26970;49.900;10.774;2023-11-21T14:53:26;10.38;;;2.72;;
39502;SDS011;26970;49.900;10.774;2023-11-21T14:56:18;5.63;;;3.10;;
39502;SDS011;26970;49.900;10.774;2023-11-21T14:58:52;10.48;;;3.50;;
39502;SDS011;26970;49.900;10.774;2023-11-21T15:01:22;7.97;;;2.92;;